createdAt,value
2018-09-20T00:01:19.370Z,9.43
2018-09-20T00:03:22.900Z,10.07
2018-09-20T00:05:26.352Z,10.37
2018-09-20T00:07:29.928Z,9.53
2018-09-20T00:09:33.419Z,11.87
2018-09-20T00:11:36.966Z,10.90
2018-09-20T00:13:40.499Z,12.97
2018-09-20T00:15:44.010Z,10.70
2018-09-20T00:17:47.620Z,11.07
2018-09-20T00:19:51.109Z,10.03
2018-09-20T00:21:54.605Z,10.60
2018-09-20T00:23:58.182Z,10.10
2018-09-20T00:26:01.834Z,11.27
2018-09-20T00:28:05.445Z,10.90
2018-09-20T00:30:09.345Z,10.30
2018-09-20T00:32:12.915Z,10.30
2018-09-20T00:34:16.435Z,15.30
2018-09-20T00:36:19.931Z,10.03
2018-09-20T00:38:23.520Z,11.93
2018-09-20T00:40:27.026Z,9.70
2018-09-20T00:42:30.570Z,10.13
2018-09-20T00:44:34.096Z,10.83
2018-09-20T00:46:37.595Z,12.20
2018-09-20T00:48:41.145Z,10.73
2018-09-20T00:50:44.679Z,10.97
2018-09-20T00:52:48.212Z,11.13
2018-09-20T00:54:51.771Z,13.70
2018-09-20T00:56:55.301Z,11.43
2018-09-20T00:58:58.787Z,12.03
2018-09-20T01:01:02.292Z,11.53
2018-09-20T01:03:06.177Z,10.80
2018-09-20T01:05:09.661Z,10.47
2018-09-20T01:07:13.200Z,13.03
2018-09-20T01:09:16.682Z,11.30
2018-09-20T01:11:20.297Z,13.20
2018-09-20T01:13:23.808Z,10.70
2018-09-20T01:15:27.344Z,12.17
2018-09-20T01:17:30.837Z,12.13
2018-09-20T01:19:34.304Z,11.13
2018-09-20T01:21:37.831Z,11.07
2018-09-20T01:23:41.339Z,11.00
2018-09-20T01:25:44.820Z,10.97
2018-09-20T01:27:48.385Z,11.30
2018-09-20T01:29:51.908Z,10.93
2018-09-20T01:31:55.384Z,10.77
2018-09-20T01:33:58.911Z,10.90
2018-09-20T01:36:02.448Z,11.37
2018-09-20T01:38:06.268Z,10.90
2018-09-20T01:40:09.765Z,13.03
2018-09-20T01:42:13.293Z,10.23
2018-09-20T01:44:16.858Z,11.40
2018-09-20T01:46:20.357Z,10.57
2018-09-20T01:48:23.889Z,10.57
2018-09-20T01:50:27.359Z,13.13
2018-09-20T01:52:31.664Z,10.63
2018-09-20T01:54:35.231Z,10.77
2018-09-20T01:56:38.735Z,10.90
2018-09-20T01:58:42.344Z,10.40
2018-09-20T02:00:45.857Z,11.93
2018-09-20T02:02:49.393Z,11.17
2018-09-20T02:04:52.956Z,11.93
2018-09-20T02:06:56.543Z,11.47
2018-09-20T02:09:00.160Z,11.60
2018-09-20T02:11:03.747Z,12.17
2018-09-20T02:13:07.283Z,11.63
2018-09-20T02:15:10.812Z,12.03
2018-09-20T02:17:14.291Z,10.70
2018-09-20T02:19:17.792Z,11.80
2018-09-20T02:21:21.729Z,13.80
2018-09-20T02:23:25.225Z,11.77
2018-09-20T02:25:28.721Z,12.13
2018-09-20T02:27:32.252Z,11.83
2018-09-20T02:29:35.760Z,12.17
2018-09-20T02:31:39.619Z,11.83
2018-09-20T02:33:43.090Z,10.70
2018-09-20T02:35:46.607Z,11.50
2018-09-20T02:37:50.106Z,13.30
2018-09-20T02:39:53.612Z,12.77
2018-09-20T02:41:57.096Z,11.50
2018-09-20T02:44:00.629Z,14.47
2018-09-20T02:46:04.152Z,12.53
2018-09-20T02:48:07.655Z,13.50
2018-09-20T02:50:11.170Z,12.60
2018-09-20T02:52:14.663Z,13.97
2018-09-20T02:54:18.208Z,14.50
2018-09-20T02:56:21.772Z,13.83
2018-09-20T02:58:25.597Z,13.73
2018-09-20T03:00:29.105Z,14.23
2018-09-20T03:02:32.719Z,15.10
2018-09-20T03:04:36.252Z,12.80
2018-09-20T03:06:39.760Z,12.87
2018-09-20T03:08:43.269Z,11.50
2018-09-20T03:10:47.261Z,13.70
2018-09-20T03:12:50.781Z,12.37
2018-09-20T03:14:55.000Z,14.40
2018-09-20T03:16:58.499Z,12.97
2018-09-20T03:19:01.996Z,13.23
2018-09-20T03:21:05.984Z,13.50
2018-09-20T03:23:09.473Z,13.03
2018-09-20T03:25:13.012Z,13.20
2018-09-20T03:27:16.549Z,13.13
2018-09-20T03:29:20.068Z,13.30
2018-09-20T03:31:23.569Z,14.40
2018-09-20T03:33:27.073Z,12.73
2018-09-20T03:35:30.608Z,11.33
2018-09-20T03:37:34.105Z,10.87
2018-09-20T03:39:37.617Z,12.27
2018-09-20T03:41:41.321Z,12.27
2018-09-20T03:43:44.814Z,12.03
2018-09-20T03:45:48.290Z,12.20
2018-09-20T03:47:51.772Z,12.27
2018-09-20T03:49:55.367Z,11.17
2018-09-20T03:51:58.841Z,14.17
2018-09-20T03:54:02.462Z,16.60
2018-09-20T03:56:06.034Z,13.53
2018-09-20T03:58:09.537Z,15.57
2018-09-20T04:00:13.055Z,13.10
2018-09-20T04:02:16.542Z,11.77
2018-09-20T04:04:20.089Z,12.90
2018-09-20T04:06:23.777Z,11.90
2018-09-20T04:08:27.240Z,15.13
2018-09-20T04:10:30.777Z,14.40
2018-09-20T04:12:34.278Z,12.57
2018-09-20T04:14:37.820Z,14.33
2018-09-20T04:16:41.318Z,12.60
2018-09-20T04:18:44.809Z,12.07
2018-09-20T04:20:48.359Z,13.87
2018-09-20T04:22:51.844Z,12.03
2018-09-20T04:24:55.472Z,15.43
2018-09-20T04:26:59.044Z,14.60
2018-09-20T04:29:02.921Z,13.87
2018-09-20T04:31:06.652Z,15.97
2018-09-20T04:33:10.265Z,12.03
2018-09-20T04:35:13.939Z,13.63
2018-09-20T04:37:17.687Z,11.50
2018-09-20T04:39:21.475Z,14.77
2018-09-20T04:41:25.196Z,13.27
2018-09-20T04:43:28.858Z,13.73
2018-09-20T04:45:32.520Z,13.70
2018-09-20T04:47:42.782Z,13.17
2018-09-20T04:49:46.504Z,12.97
2018-09-20T04:51:50.115Z,14.47
2018-09-20T04:53:53.800Z,12.77
2018-09-20T04:55:57.593Z,12.43
2018-09-20T04:58:01.076Z,12.90
2018-09-20T05:00:05.114Z,11.80
2018-09-20T05:02:09.002Z,13.07
2018-09-20T05:04:13.785Z,12.80
2018-09-20T05:06:17.390Z,15.47
2018-09-20T05:08:21.385Z,14.57
2018-09-20T05:10:25.005Z,14.73
2018-09-20T05:12:31.693Z,16.50
2018-09-20T05:14:35.315Z,15.80
2018-09-20T05:16:39.345Z,14.83
2018-09-20T05:18:43.010Z,15.43
2018-09-20T05:20:46.735Z,15.43
2018-09-20T05:22:51.092Z,16.93
2018-09-20T05:24:55.970Z,17.23
2018-09-20T05:27:06.120Z,15.20
2018-09-20T05:29:10.860Z,14.30
2018-09-20T05:31:14.401Z,14.73
2018-09-20T05:33:17.942Z,17.37
2018-09-20T05:35:21.787Z,18.57
2018-09-20T05:37:25.575Z,14.10
2018-09-20T05:39:29.160Z,16.33
2018-09-20T05:41:34.934Z,17.07
2018-09-20T05:43:38.632Z,16.53
2018-09-20T05:45:42.419Z,15.93
2018-09-20T05:47:46.001Z,17.20
2018-09-20T05:49:49.575Z,15.67
2018-09-20T05:51:53.104Z,14.60
2018-09-20T05:53:56.690Z,15.17
2018-09-20T05:56:01.537Z,14.97
2018-09-20T05:58:05.348Z,14.47
2018-09-20T06:00:09.212Z,14.17
2018-09-20T06:02:18.763Z,15.37
2018-09-20T06:04:24.623Z,15.90
2018-09-20T06:09:08.610Z,14.47
2018-09-20T06:11:12.260Z,13.57
2018-09-20T06:13:15.880Z,15.63
2018-09-20T06:15:20.140Z,16.60
2018-09-20T06:17:33.010Z,13.60
2018-09-20T06:19:36.903Z,14.10
2018-09-20T06:21:41.220Z,11.70
2018-09-20T06:23:45.424Z,12.93
2018-09-20T06:25:49.281Z,11.43
2018-09-20T06:27:54.263Z,11.83
2018-09-20T06:29:58.408Z,9.77
2018-09-20T06:32:03.867Z,9.47
2018-09-20T06:34:07.834Z,9.40
2018-09-20T06:36:11.517Z,9.87
2018-09-20T06:38:15.126Z,9.37
2018-09-20T06:40:19.548Z,8.03
2018-09-20T06:42:23.184Z,9.63
2018-09-20T06:44:27.332Z,7.73
2018-09-20T06:46:30.897Z,10.03
2018-09-20T06:48:34.805Z,9.30
2018-09-20T06:50:38.381Z,9.27
2018-09-20T06:52:42.437Z,8.50
2018-09-20T06:54:45.991Z,7.90
2018-09-20T06:56:49.529Z,8.47
2018-09-20T06:58:53.331Z,8.13
2018-09-20T07:00:57.073Z,8.97
2018-09-20T07:03:00.907Z,10.33
2018-09-20T07:05:05.669Z,9.13
2018-09-20T07:07:09.419Z,9.07
2018-09-20T07:09:14.401Z,7.70
2018-09-20T07:11:18.025Z,8.37
2018-09-20T07:13:21.597Z,9.90
2018-09-20T07:15:25.143Z,10.60
2018-09-20T07:17:28.746Z,11.57
2018-09-20T07:19:32.684Z,8.47
2018-09-20T07:21:36.324Z,8.50
2018-09-20T07:23:39.764Z,8.93
2018-09-20T07:25:44.022Z,8.80
2018-09-20T07:27:47.615Z,9.53
2018-09-20T07:29:51.125Z,9.67
2018-09-20T07:31:54.690Z,8.47
2018-09-20T07:33:58.267Z,9.60
2018-09-20T07:36:01.842Z,9.93
2018-09-20T07:38:15.724Z,8.80
2018-09-20T07:40:19.455Z,8.20
2018-09-20T07:42:29.886Z,13.10
2018-09-20T07:44:33.801Z,9.60
2018-09-20T07:46:37.506Z,7.20
2018-09-20T07:48:41.590Z,10.47
2018-09-20T07:50:45.802Z,12.70
2018-09-20T07:52:49.485Z,10.93
2018-09-20T07:54:53.073Z,9.23
2018-09-20T07:56:56.963Z,9.10
2018-09-20T07:59:00.610Z,9.33
2018-09-20T08:01:04.181Z,8.60
2018-09-20T08:03:07.913Z,8.07
2018-09-20T08:05:12.460Z,8.10
2018-09-20T08:07:16.577Z,7.47
2018-09-20T08:09:20.354Z,10.57
2018-09-20T08:11:24.157Z,9.73
2018-09-20T08:13:27.711Z,8.67
2018-09-20T08:15:31.281Z,7.83
2018-09-20T08:17:35.450Z,13.40
2018-09-20T08:19:39.099Z,14.17
2018-09-20T08:21:42.906Z,7.85
2018-09-20T08:23:46.577Z,10.67
2018-09-20T08:25:51.148Z,9.43
2018-09-20T08:27:54.821Z,10.20
2018-09-20T08:29:58.538Z,10.85
2018-09-20T08:32:02.375Z,9.93
2018-09-20T08:34:06.746Z,11.63
2018-09-20T08:36:11.080Z,10.53
2018-09-20T08:38:16.236Z,8.80
2018-09-20T08:40:21.481Z,11.45
2018-09-20T08:42:26.036Z,10.00
2018-09-20T08:44:30.193Z,5.03
2018-09-20T08:46:33.841Z,9.35
2018-09-20T08:48:37.410Z,8.58
2018-09-20T08:50:41.059Z,7.10
2018-09-20T08:52:44.696Z,8.03
2018-09-20T08:54:48.350Z,7.83
2018-09-20T08:56:52.508Z,9.20
2018-09-20T08:58:56.226Z,7.87
2018-09-20T09:01:01.065Z,7.07
2018-09-20T09:03:04.788Z,8.30
2018-09-20T09:05:08.426Z,12.03
2018-09-20T09:07:12.484Z,10.67
2018-09-20T09:09:16.045Z,9.07
2018-09-20T09:11:19.616Z,10.63
2018-09-20T09:13:23.217Z,6.03
2018-09-20T09:15:27.941Z,8.03
2018-09-20T09:17:31.886Z,8.27
2018-09-20T09:19:35.705Z,10.60
2018-09-20T09:21:43.398Z,11.73
2018-09-20T09:23:47.073Z,9.23
2018-09-20T09:25:50.692Z,6.63
2018-09-20T09:27:54.616Z,8.40
2018-09-20T09:29:58.221Z,7.27
2018-09-20T09:32:02.322Z,6.93
2018-09-20T09:34:06.366Z,10.63
2018-09-20T09:36:10.240Z,11.70
2018-09-20T09:38:14.118Z,10.77
2018-09-20T09:40:17.948Z,6.97
2018-09-20T09:42:21.794Z,9.23
2018-09-20T09:44:27.063Z,8.63
2018-09-20T09:46:32.397Z,9.07
2018-09-20T09:48:35.923Z,7.53
2018-09-20T09:50:39.523Z,7.37
2018-09-20T09:52:43.400Z,9.63
2018-09-20T09:54:47.013Z,7.10
2018-09-20T09:56:50.725Z,8.30
2018-09-20T09:58:54.376Z,6.03
2018-09-20T10:00:57.969Z,8.97
2018-09-20T10:03:01.503Z,9.40
2018-09-20T10:05:10.197Z,10.20
2018-09-20T10:07:14.695Z,7.17
2018-09-20T10:09:18.678Z,9.57
2018-09-20T10:11:22.913Z,9.47
2018-09-20T10:13:27.105Z,7.43
2018-09-20T10:15:30.793Z,8.63
2018-09-20T10:17:34.631Z,7.70
2018-09-20T10:19:38.524Z,7.93
2018-09-20T10:21:43.497Z,8.53
2018-09-20T10:23:47.273Z,7.33
2018-09-20T10:25:51.176Z,7.67
2018-09-20T10:27:54.919Z,6.37
2018-09-20T10:29:58.551Z,8.37
2018-09-20T10:32:02.703Z,8.33
2018-09-20T10:34:06.457Z,6.27
2018-09-20T10:36:10.575Z,7.77
2018-09-20T10:38:14.396Z,7.33
2018-09-20T10:40:17.999Z,9.47
2018-09-20T10:42:21.681Z,5.37
2018-09-20T10:44:25.832Z,7.67
2018-09-20T10:46:29.619Z,8.17
2018-09-20T10:48:33.582Z,8.47
2018-09-20T10:50:37.259Z,9.53
2018-09-20T10:52:40.810Z,6.03
2018-09-20T10:54:46.464Z,7.77
2018-09-20T10:56:50.743Z,7.33
2018-09-20T10:58:54.566Z,9.80
2018-09-20T11:00:58.667Z,6.07
2018-09-20T11:03:03.517Z,9.20
2018-09-20T11:05:09.648Z,8.77
2018-09-20T11:07:16.062Z,7.37
2018-09-20T11:09:25.842Z,7.63
2018-09-20T11:11:30.649Z,10.30
2018-09-20T11:13:36.015Z,10.40
2018-09-20T11:15:40.013Z,12.00
2018-09-20T11:17:45.810Z,6.80
2018-09-20T11:19:49.731Z,7.13
2018-09-20T11:21:53.757Z,7.43
2018-09-20T11:23:57.987Z,6.57
2018-09-20T11:26:04.902Z,7.63
2018-09-20T11:28:08.576Z,9.63
2018-09-20T11:30:12.498Z,8.53
2018-09-20T11:32:17.295Z,7.10
2018-09-20T11:34:21.289Z,10.97
2018-09-20T11:36:25.104Z,11.57
2018-09-20T11:38:29.487Z,9.97
2018-09-20T11:40:33.216Z,6.90
2018-09-20T11:42:40.451Z,6.33
2018-09-20T11:44:48.263Z,8.60
2018-09-20T11:46:57.641Z,5.87
2018-09-20T11:49:01.894Z,9.07
2018-09-20T11:51:06.587Z,9.40
2018-09-20T11:53:10.346Z,7.00
2018-09-20T11:55:14.524Z,5.53
2018-09-20T11:57:18.748Z,8.40
2018-09-20T11:59:23.827Z,7.13
2018-09-20T12:01:27.710Z,7.03
2018-09-20T12:03:32.821Z,7.37
2018-09-20T12:05:37.181Z,5.40
2018-09-20T12:07:41.045Z,6.63
2018-09-20T12:10:29.391Z,7.10
2018-09-20T12:12:34.539Z,4.83
2018-09-20T12:14:38.943Z,6.13
2018-09-20T12:16:43.669Z,8.43
2018-09-20T12:18:50.482Z,8.50
2018-09-20T12:20:59.314Z,9.27
2018-09-20T12:23:06.125Z,9.47
2018-09-20T12:25:12.270Z,8.30
2018-09-20T12:27:16.671Z,7.60
2018-09-20T12:29:20.673Z,7.80
2018-09-20T12:31:24.647Z,9.40
2018-09-20T12:33:35.017Z,7.93
2018-09-20T12:35:42.071Z,8.37
2018-09-20T12:37:45.909Z,9.10
2018-09-20T12:39:49.977Z,9.43
2018-09-20T12:41:54.070Z,6.20
2018-09-20T12:43:57.873Z,6.77
2018-09-20T12:46:01.991Z,8.53
2018-09-20T12:48:06.124Z,8.87
2018-09-20T12:50:09.926Z,8.23
2018-09-20T12:52:13.730Z,11.57
2018-09-20T12:54:17.408Z,7.13
2018-09-20T12:56:21.141Z,11.33
2018-09-20T12:58:31.358Z,7.50
2018-09-20T13:00:35.117Z,7.47
2018-09-20T13:02:39.277Z,6.90
2018-09-20T13:04:43.128Z,9.70
2018-09-20T13:06:46.912Z,8.10
2018-09-20T13:08:50.579Z,7.87
2018-09-20T13:10:54.280Z,8.13
2018-09-20T13:12:58.308Z,9.10
2018-09-20T13:15:03.056Z,7.97
2018-09-20T13:17:07.621Z,8.13
2018-09-20T13:19:11.370Z,6.53
2018-09-20T13:21:16.113Z,8.77
2018-09-20T13:23:20.391Z,10.87
2018-09-20T13:25:24.114Z,8.87
2018-09-20T13:27:28.087Z,8.30
2018-09-20T13:29:31.739Z,6.27
2018-09-20T13:31:36.251Z,11.47
2018-09-20T13:33:39.907Z,7.80
2018-09-20T13:35:43.656Z,11.53
2018-09-20T13:37:48.075Z,9.63
2018-09-20T13:39:51.689Z,8.67
2018-09-20T13:41:55.405Z,8.50
2018-09-20T13:43:59.040Z,8.40
2018-09-20T13:46:02.616Z,10.43
2018-09-20T13:48:06.643Z,8.30
2018-09-20T13:50:10.395Z,6.90
2018-09-20T13:52:14.036Z,9.10
2018-09-20T13:54:18.425Z,14.13
2018-09-20T13:56:22.007Z,10.10
2018-09-20T13:58:25.740Z,9.70
2018-09-20T14:00:29.469Z,5.77
2018-09-20T14:02:33.068Z,7.83
2018-09-20T14:04:36.681Z,9.70
2018-09-20T14:06:40.582Z,9.90
2018-09-20T14:08:44.250Z,16.33
2018-09-20T14:10:48.485Z,10.33
2018-09-20T14:12:52.229Z,10.97
2018-09-20T14:14:55.894Z,7.77
2018-09-20T14:16:59.528Z,10.30
2018-09-20T14:19:03.256Z,7.60
2018-09-20T14:21:07.626Z,8.70
2018-09-20T14:23:11.225Z,12.07
2018-09-20T14:25:14.827Z,11.90
2018-09-20T14:27:18.426Z,8.47
2018-09-20T14:29:22.017Z,9.77
2018-09-20T14:31:25.695Z,10.83
2018-09-20T14:33:29.283Z,9.57
2018-09-20T14:35:32.925Z,9.63
2018-09-20T14:37:36.753Z,6.97
2018-09-20T14:39:40.261Z,8.77
2018-09-20T14:41:44.305Z,5.37
2018-09-20T14:43:47.856Z,10.47
2018-09-20T14:45:51.460Z,8.17
2018-09-20T14:47:54.956Z,8.50
2018-09-20T14:49:58.546Z,11.10
2018-09-20T14:52:02.079Z,11.53
2018-09-20T14:54:05.643Z,9.50
2018-09-20T14:56:09.254Z,8.43
2018-09-20T14:58:12.816Z,8.30
2018-09-20T15:00:16.412Z,11.50
2018-09-20T15:02:20.011Z,7.90
2018-09-20T15:04:23.772Z,9.57
2018-09-20T15:06:27.351Z,6.43
2018-09-20T15:08:31.925Z,12.30
2018-09-20T15:10:35.466Z,10.37
2018-09-20T15:12:39.031Z,9.93
2018-09-20T15:14:42.927Z,7.50
2018-09-20T15:16:46.425Z,9.37
2018-09-20T15:18:49.927Z,7.53
2018-09-20T15:20:53.588Z,7.30
2018-09-20T15:22:57.108Z,7.07
2018-09-20T15:25:00.637Z,7.50
2018-09-20T15:27:10.993Z,10.63
2018-09-20T15:29:14.464Z,11.87
2018-09-20T15:31:18.029Z,8.50
2018-09-20T15:33:21.515Z,8.07
2018-09-20T15:35:25.024Z,8.83
2018-09-20T15:37:28.542Z,6.70
2018-09-20T15:39:32.037Z,6.63
2018-09-20T15:41:35.590Z,6.63
2018-09-20T15:43:39.061Z,9.03
2018-09-20T15:45:42.690Z,9.27
2018-09-20T15:47:46.211Z,7.00
2018-09-20T15:49:49.786Z,5.43
2018-09-20T15:51:53.291Z,8.40
2018-09-20T15:53:56.811Z,10.37
2018-09-20T15:56:00.361Z,8.17
2018-09-20T15:58:03.878Z,12.13
2018-09-20T16:00:07.472Z,7.77
2018-09-20T16:02:10.948Z,9.40
2018-09-20T16:04:14.462Z,6.07
2018-09-20T16:06:18.035Z,8.30
2018-09-20T16:08:21.541Z,7.87
2018-09-20T16:10:25.056Z,7.10
2018-09-20T16:12:28.565Z,10.77
2018-09-20T16:14:32.133Z,9.87
2018-09-20T16:16:35.800Z,8.30
2018-09-20T16:18:39.295Z,8.00
2018-09-20T16:20:42.810Z,6.73
2018-09-20T16:22:46.336Z,9.93
2018-09-20T16:24:49.861Z,10.00
2018-09-20T16:26:53.405Z,9.07
2018-09-20T16:29:04.200Z,8.57
2018-09-20T16:32:19.884Z,7.73
2018-09-20T16:35:40.256Z,9.93
2018-09-20T16:37:54.107Z,5.97
2018-09-20T16:39:59.409Z,8.33
2018-09-20T16:42:03.975Z,5.10
2018-09-20T16:44:07.474Z,10.50
2018-09-20T16:46:10.975Z,8.00
2018-09-20T16:48:14.469Z,8.47
2018-09-20T16:50:18.071Z,7.67
2018-09-20T16:52:21.589Z,9.87
2018-09-20T16:54:25.117Z,9.13
2018-09-20T16:56:28.717Z,10.37
2018-09-20T16:58:32.252Z,8.77
2018-09-20T17:00:35.702Z,9.03
2018-09-20T17:02:39.943Z,8.77
2018-09-20T17:04:43.433Z,8.50
2018-09-20T17:06:46.975Z,8.20
2018-09-20T17:08:50.926Z,9.17
2018-09-20T17:10:54.422Z,9.10
2018-09-20T17:12:57.936Z,9.40
2018-09-20T17:15:02.176Z,9.67
2018-09-20T17:17:06.141Z,6.83
2018-09-20T17:19:09.610Z,8.20
2018-09-20T17:21:13.156Z,12.00
2018-09-20T17:23:16.638Z,7.73
2018-09-20T17:25:20.150Z,8.23
2018-09-20T17:27:24.248Z,13.63
2018-09-20T17:29:27.725Z,9.13
2018-09-20T17:31:31.233Z,11.77
2018-09-20T17:33:34.734Z,11.07
2018-09-20T17:35:38.650Z,8.20
2018-09-20T17:37:42.898Z,9.17
2018-09-20T17:39:47.176Z,10.57
2018-09-20T17:41:51.312Z,8.67
2018-09-20T17:44:03.337Z,6.83
2018-09-20T17:46:07.567Z,10.43
2018-09-20T17:48:11.078Z,11.60
2018-09-20T17:50:14.673Z,11.97
2018-09-20T17:52:18.475Z,8.77
2018-09-20T17:54:22.215Z,10.53
2018-09-20T17:56:26.204Z,9.27
2018-09-20T17:58:30.111Z,11.83
2018-09-20T18:00:33.602Z,12.87
2018-09-20T18:02:37.120Z,14.17
2018-09-20T18:04:40.593Z,10.87
2018-09-20T18:06:44.104Z,9.00
2018-09-20T18:08:47.585Z,11.50
2018-09-20T18:10:51.077Z,9.27
2018-09-20T18:12:54.571Z,9.20
2018-09-20T18:14:58.104Z,9.30
2018-09-20T18:17:01.776Z,12.90
2018-09-20T18:19:05.273Z,10.83
2018-09-20T18:21:08.767Z,9.97
2018-09-20T18:23:12.435Z,7.17
2018-09-20T18:25:15.919Z,8.07
2018-09-20T18:27:19.431Z,9.77
2018-09-20T18:29:22.901Z,8.20
2018-09-20T18:31:26.375Z,9.60
2018-09-20T18:33:29.893Z,8.00
2018-09-20T18:35:33.452Z,8.43
2018-09-20T18:37:38.314Z,11.47
2018-09-20T18:39:41.805Z,8.57
2018-09-20T18:41:46.092Z,8.57
2018-09-20T18:43:49.587Z,8.13
2018-09-20T18:45:53.043Z,10.30
2018-09-20T18:47:56.524Z,11.03
2018-09-20T18:50:00.472Z,9.33
2018-09-20T18:52:04.141Z,10.13
2018-09-20T18:54:07.673Z,9.13
2018-09-20T18:56:11.379Z,7.17
2018-09-20T18:58:14.894Z,8.80
2018-09-20T19:00:18.387Z,8.87
2018-09-20T19:02:21.851Z,13.60
2018-09-20T19:04:25.364Z,8.37
2018-09-20T19:06:28.860Z,9.83
2018-09-20T19:08:32.393Z,9.73
2018-09-20T19:10:35.860Z,12.67
2018-09-20T19:12:39.352Z,6.77
2018-09-20T19:14:42.912Z,9.30
2018-09-20T19:16:46.407Z,7.70
2018-09-20T19:18:49.930Z,8.37
2018-09-20T19:20:53.491Z,11.33
2018-09-20T19:22:57.000Z,9.00
2018-09-20T19:25:00.522Z,9.73
2018-09-20T19:27:04.344Z,14.17
2018-09-20T19:29:07.865Z,10.90
2018-09-20T19:31:11.357Z,11.63
2018-09-20T19:33:15.063Z,11.97
2018-09-20T19:35:18.556Z,11.50
2018-09-20T19:37:22.037Z,9.60
2018-09-20T19:39:25.524Z,10.23
2018-09-20T19:41:29.024Z,10.50
2018-09-20T19:43:32.556Z,14.50
2018-09-20T19:45:36.057Z,9.60
2018-09-20T19:47:39.544Z,11.80
2018-09-20T19:49:43.036Z,12.53
2018-09-20T19:51:46.566Z,9.93
2018-09-20T19:53:50.274Z,9.53
2018-09-20T19:55:53.753Z,9.07
2018-09-20T19:57:57.235Z,9.53
2018-09-20T20:00:00.785Z,8.37
2018-09-20T20:02:04.375Z,9.57
2018-09-20T20:04:07.903Z,9.80
2018-09-20T20:06:11.425Z,9.77
2018-09-20T20:08:14.948Z,8.27
2018-09-20T20:10:18.434Z,9.23
2018-09-20T20:12:22.081Z,10.60
2018-09-20T20:14:25.645Z,10.93
2018-09-20T20:16:29.168Z,9.67
2018-09-20T20:18:32.696Z,10.73
2018-09-20T20:20:36.203Z,9.50
2018-09-20T20:22:39.705Z,9.97
2018-09-20T20:24:43.184Z,10.93
2018-09-20T20:26:46.697Z,8.70
2018-09-20T20:28:50.182Z,10.77
2018-09-20T20:30:53.679Z,11.87
2018-09-20T20:32:57.172Z,12.37
2018-09-20T20:35:00.710Z,11.53
2018-09-20T20:37:04.446Z,10.60
2018-09-20T20:39:09.121Z,10.27
2018-09-20T20:41:12.591Z,15.67
2018-09-20T20:43:16.047Z,11.23
2018-09-20T20:45:19.565Z,11.33
2018-09-20T20:47:23.067Z,12.10
2018-09-20T20:49:26.570Z,9.93
2018-09-20T20:51:30.084Z,11.20
2018-09-20T20:53:33.588Z,11.40
2018-09-20T20:55:37.080Z,11.80
2018-09-20T20:57:40.558Z,10.27
2018-09-20T20:59:44.048Z,11.80
2018-09-20T21:01:47.604Z,11.53
2018-09-20T21:03:51.278Z,10.47
2018-09-20T21:05:54.774Z,9.93
2018-09-20T21:07:58.259Z,10.53
2018-09-20T21:10:01.763Z,13.93
2018-09-20T21:12:05.275Z,13.60
2018-09-20T21:14:08.817Z,14.53
2018-09-20T21:16:12.469Z,9.67
2018-09-20T21:18:16.151Z,11.17
2018-09-20T21:20:19.649Z,10.27
2018-09-20T21:22:23.115Z,14.57
2018-09-20T21:24:26.666Z,9.33
2018-09-20T21:26:30.169Z,12.57
2018-09-20T21:28:33.639Z,9.50
2018-09-20T21:30:37.100Z,10.53
2018-09-20T21:32:40.576Z,12.03
2018-09-20T21:34:44.092Z,11.57
2018-09-20T21:36:47.628Z,12.87
2018-09-20T21:38:51.089Z,11.83
2018-09-20T21:40:54.617Z,14.93
2018-09-20T21:42:58.125Z,11.20
2018-09-20T21:45:01.664Z,11.90
2018-09-20T21:47:05.230Z,12.67
2018-09-20T21:49:08.827Z,11.20
2018-09-20T21:51:12.379Z,12.27
2018-09-20T21:53:15.998Z,12.57
2018-09-20T21:55:19.491Z,10.90
2018-09-20T21:57:22.999Z,12.63
2018-09-20T21:59:26.514Z,10.77
2018-09-20T22:01:35.591Z,10.53
2018-09-20T22:03:39.087Z,10.53
2018-09-20T22:05:42.610Z,11.50
2018-09-20T22:07:46.083Z,11.77
2018-09-20T22:09:49.559Z,10.70
2018-09-20T22:11:53.064Z,14.30
2018-09-20T22:13:56.541Z,11.60
2018-09-20T22:16:00.032Z,13.47
2018-09-20T22:18:03.509Z,12.50
2018-09-20T22:20:07.054Z,15.23
2018-09-20T22:22:10.510Z,12.90
2018-09-20T22:24:14.009Z,9.77
2018-09-20T22:26:17.537Z,11.47
2018-09-20T22:28:21.016Z,13.83
2018-09-20T22:30:24.504Z,11.50
2018-09-20T22:32:28.036Z,10.87
2018-09-20T22:34:31.475Z,9.77
2018-09-20T22:36:35.016Z,11.20
2018-09-20T22:38:38.511Z,11.17
2018-09-20T22:40:42.032Z,9.87
2018-09-20T22:42:45.511Z,10.70
2018-09-20T22:44:49.019Z,11.53
2018-09-20T22:46:52.709Z,12.40
2018-09-20T22:48:56.201Z,11.37
2018-09-20T22:50:59.729Z,14.27
2018-09-20T22:53:03.238Z,13.77
2018-09-20T22:55:06.764Z,13.90
2018-09-20T22:57:10.334Z,12.57
2018-09-20T22:59:13.834Z,11.40
2018-09-20T23:01:17.519Z,11.10
2018-09-20T23:03:21.058Z,11.57
2018-09-20T23:05:24.772Z,11.00
2018-09-20T23:07:28.273Z,12.40
2018-09-20T23:09:31.747Z,11.60
2018-09-20T23:11:35.320Z,12.07
2018-09-20T23:13:38.817Z,12.00
2018-09-20T23:15:42.328Z,12.47
2018-09-20T23:17:45.791Z,11.60
2018-09-20T23:19:49.285Z,11.10
2018-09-20T23:21:52.812Z,16.13
2018-09-20T23:23:56.297Z,12.03
2018-09-20T23:25:59.830Z,14.50
2018-09-20T23:28:03.354Z,15.77
2018-09-20T23:30:06.906Z,11.27
2018-09-20T23:32:10.428Z,12.07
2018-09-20T23:34:13.891Z,12.00
2018-09-20T23:36:17.408Z,13.77
2018-09-20T23:38:20.969Z,10.77
2018-09-20T23:40:24.461Z,12.23
2018-09-20T23:42:28.001Z,11.57
2018-09-20T23:44:31.536Z,11.47
2018-09-20T23:46:35.100Z,11.30
2018-09-20T23:48:38.611Z,11.60
2018-09-20T23:50:42.116Z,14.23
2018-09-20T23:52:45.688Z,11.97
2018-09-20T23:54:49.161Z,15.43
2018-09-20T23:56:52.740Z,11.40
2018-09-20T23:58:56.249Z,14.43
